Airport Name : Dundee

Other Name : Dundee

ICAO : EGPN

IATA : DND

FAA :

Latitude : 56.452499

Longitude : -3.025833

Country : United Kingdom

Local Date and Time : 18 Jan 2021 17:37

 

TAF (Terminal Aerodrome Forecast)

TAF EGPN 181401Z 1815/1817 25012KT 9999 FEW040 PROB30 TEMPO 1815/1817 6000 RA SHRA BKN014

 

METAR (METeorological Aerodrome Report)

EGPN 181550Z 28003KT 9999 BKN025 05/04 Q1006

EGPN 181520Z 26006KT 9999 SCT025 SCT032 05/03 Q1007

EGPN 181450Z 25010KT 9999 SCT025 SCT032 05/03 Q1007

EGPN 181420Z 26006KT 9999 FEW020 SCT032 06/03 Q1007

EGPN 181350Z 26010KT 9999 FEW040 06/04 Q1008

To Charter a Jet Click here.